sensor_id;sensor_type;location;lat;lon;timestamp;P1;durP1;ratioP1;P2;durP2;ratioP2
19038;SDS011;9652;49.014;12.052;2024-01-16T00:00:01;5.63;;;5.13;;
19038;SDS011;9652;49.014;12.052;2024-01-16T00:02:30;5.93;;;5.43;;
19038;SDS011;9652;49.014;12.052;2024-01-16T00:04:57;5.50;;;4.97;;
19038;SDS011;9652;49.014;12.052;2024-01-16T00:07:24;5.63;;;5.20;;
19038;SDS011;9652;49.014;12.052;2024-01-16T00:09:51;5.37;;;4.87;;
19038;SDS011;9652;49.014;12.052;2024-01-16T00:12:19;5.27;;;4.17;;
19038;SDS011;9652;49.014;12.052;2024-01-16T00:14:46;5.80;;;5.13;;
19038;SDS011;9652;49.014;12.052;2024-01-16T00:17:15;6.23;;;5.00;;
19038;SDS011;9652;49.014;12.052;2024-01-16T00:19:42;5.27;;;4.87;;
19038;SDS011;9652;49.014;12.052;2024-01-16T00:22:09;5.03;;;4.60;;
19038;SDS011;9652;49.014;12.052;2024-01-16T00:24:36;5.23;;;4.73;;
19038;SDS011;9652;49.014;12.052;2024-01-16T00:27:03;5.80;;;5.30;;
19038;SDS011;9652;49.014;12.052;2024-01-16T00:29:30;5.27;;;4.87;;
19038;SDS011;9652;49.014;12.052;2024-01-16T00:31:57;4.37;;;3.97;;
19038;SDS011;9652;49.014;12.052;2024-01-16T00:34:26;4.20;;;3.90;;
19038;SDS011;9652;49.014;12.052;2024-01-16T00:36:53;4.33;;;4.03;;
19038;SDS011;9652;49.014;12.052;2024-01-16T00:39:20;4.73;;;4.20;;
19038;SDS011;9652;49.014;12.052;2024-01-16T00:41:47;4.70;;;4.20;;
19038;SDS011;9652;49.014;12.052;2024-01-16T00:44:14;5.03;;;4.63;;
19038;SDS011;9652;49.014;12.052;2024-01-16T00:46:41;4.37;;;4.00;;
19038;SDS011;9652;49.014;12.052;2024-01-16T00:49:08;5.57;;;4.97;;
19038;SDS011;9652;49.014;12.052;2024-01-16T00:51:36;5.03;;;3.97;;
19038;SDS011;9652;49.014;12.052;2024-01-16T00:54:03;4.73;;;4.23;;
19038;SDS011;9652;49.014;12.052;2024-01-16T00:56:33;4.50;;;4.13;;
19038;SDS011;9652;49.014;12.052;2024-01-16T00:59:02;5.20;;;4.70;;
19038;SDS011;9652;49.014;12.052;2024-01-16T01:01:29;5.57;;;5.07;;
19038;SDS011;9652;49.014;12.052;2024-01-16T01:03:56;4.80;;;4.43;;
19038;SDS011;9652;49.014;12.052;2024-01-16T01:06:23;5.90;;;5.17;;
19038;SDS011;9652;49.014;12.052;2024-01-16T01:08:51;4.83;;;4.43;;
19038;SDS011;9652;49.014;12.052;2024-01-16T01:11:19;4.63;;;4.33;;
19038;SDS011;9652;49.014;12.052;2024-01-16T01:13:46;4.77;;;4.33;;
19038;SDS011;9652;49.014;12.052;2024-01-16T01:16:13;4.93;;;4.53;;
19038;SDS011;9652;49.014;12.052;2024-01-16T01:18:40;4.33;;;4.00;;
19038;SDS011;9652;49.014;12.052;2024-01-16T01:21:07;5.30;;;4.90;;
19038;SDS011;9652;49.014;12.052;2024-01-16T01:23:34;4.90;;;4.50;;
19038;SDS011;9652;49.014;12.052;2024-01-16T01:26:02;5.30;;;4.83;;
19038;SDS011;9652;49.014;12.052;2024-01-16T01:28:30;7.30;;;4.10;;
19038;SDS011;9652;49.014;12.052;2024-01-16T01:30:57;6.53;;;4.50;;
19038;SDS011;9652;49.014;12.052;2024-01-16T01:33:24;5.10;;;4.70;;
19038;SDS011;9652;49.014;12.052;2024-01-16T01:35:51;7.33;;;5.37;;
19038;SDS011;9652;49.014;12.052;2024-01-16T01:38:18;5.53;;;4.73;;
19038;SDS011;9652;49.014;12.052;2024-01-16T01:40:45;5.00;;;4.60;;
19038;SDS011;9652;49.014;12.052;2024-01-16T01:43:21;5.37;;;4.87;;
19038;SDS011;9652;49.014;12.052;2024-01-16T01:45:53;6.77;;;5.27;;
19038;SDS011;9652;49.014;12.052;2024-01-16T01:48:36;7.37;;;5.27;;
19038;SDS011;9652;49.014;12.052;2024-01-16T01:51:05;5.50;;;4.43;;
19038;SDS011;9652;49.014;12.052;2024-01-16T01:53:33;5.10;;;4.70;;
19038;SDS011;9652;49.014;12.052;2024-01-16T01:56:02;5.60;;;4.63;;
19038;SDS011;9652;49.014;12.052;2024-01-16T01:58:34;4.17;;;3.87;;
19038;SDS011;9652;49.014;12.052;2024-01-16T02:01:04;5.40;;;5.10;;
19038;SDS011;9652;49.014;12.052;2024-01-16T02:03:35;5.20;;;4.70;;
19038;SDS011;9652;49.014;12.052;2024-01-16T02:06:07;5.90;;;4.63;;
19038;SDS011;9652;49.014;12.052;2024-01-16T02:08:35;4.93;;;4.53;;
19038;SDS011;9652;49.014;12.052;2024-01-16T02:11:02;6.10;;;5.03;;
19038;SDS011;9652;49.014;12.052;2024-01-16T02:13:30;5.37;;;4.77;;
19038;SDS011;9652;49.014;12.052;2024-01-16T02:16:00;5.10;;;4.70;;
19038;SDS011;9652;49.014;12.052;2024-01-16T02:18:28;6.43;;;5.10;;
19038;SDS011;9652;49.014;12.052;2024-01-16T02:20:56;5.30;;;4.80;;
19038;SDS011;9652;49.014;12.052;2024-01-16T02:23:31;6.60;;;5.17;;
19038;SDS011;9652;49.014;12.052;2024-01-16T02:25:59;5.70;;;4.97;;
19038;SDS011;9652;49.014;12.052;2024-01-16T02:28:27;6.00;;;4.77;;
19038;SDS011;9652;49.014;12.052;2024-01-16T02:30:55;5.03;;;4.30;;
19038;SDS011;9652;49.014;12.052;2024-01-16T02:33:22;5.43;;;5.03;;
19038;SDS011;9652;49.014;12.052;2024-01-16T02:35:49;5.07;;;4.73;;
19038;SDS011;9652;49.014;12.052;2024-01-16T02:38:16;5.93;;;4.13;;
19038;SDS011;9652;49.014;12.052;2024-01-16T02:40:44;6.33;;;5.40;;
19038;SDS011;9652;49.014;12.052;2024-01-16T02:43:11;5.20;;;4.80;;
19038;SDS011;9652;49.014;12.052;2024-01-16T02:45:38;5.43;;;5.03;;
19038;SDS011;9652;49.014;12.052;2024-01-16T02:48:05;6.27;;;5.53;;
19038;SDS011;9652;49.014;12.052;2024-01-16T02:50:32;4.97;;;4.67;;
19038;SDS011;9652;49.014;12.052;2024-01-16T02:53:00;7.37;;;4.67;;
19038;SDS011;9652;49.014;12.052;2024-01-16T02:55:27;5.30;;;4.80;;
19038;SDS011;9652;49.014;12.052;2024-01-16T02:57:55;5.30;;;4.87;;
19038;SDS011;9652;49.014;12.052;2024-01-16T03:00:22;6.07;;;4.47;;
19038;SDS011;9652;49.014;12.052;2024-01-16T03:02:49;5.03;;;4.63;;
19038;SDS011;9652;49.014;12.052;2024-01-16T03:05:16;4.97;;;4.40;;
19038;SDS011;9652;49.014;12.052;2024-01-16T03:07:43;6.17;;;5.53;;
19038;SDS011;9652;49.014;12.052;2024-01-16T03:10:11;5.60;;;5.10;;
19038;SDS011;9652;49.014;12.052;2024-01-16T03:12:38;5.33;;;4.83;;
19038;SDS011;9652;49.014;12.052;2024-01-16T03:15:07;4.87;;;4.43;;
19038;SDS011;9652;49.014;12.052;2024-01-16T03:17:34;5.50;;;5.00;;
19038;SDS011;9652;49.014;12.052;2024-01-16T03:20:01;4.80;;;4.40;;
19038;SDS011;9652;49.014;12.052;2024-01-16T03:22:29;5.70;;;5.20;;
19038;SDS011;9652;49.014;12.052;2024-01-16T03:24:56;4.60;;;4.20;;
19038;SDS011;9652;49.014;12.052;2024-01-16T03:27:23;5.87;;;5.27;;
19038;SDS011;9652;49.014;12.052;2024-01-16T03:29:50;5.37;;;4.87;;
19038;SDS011;9652;49.014;12.052;2024-01-16T03:32:19;5.93;;;4.63;;
19038;SDS011;9652;49.014;12.052;2024-01-16T03:34:46;5.77;;;4.07;;
19038;SDS011;9652;49.014;12.052;2024-01-16T03:37:13;5.17;;;4.67;;
19038;SDS011;9652;49.014;12.052;2024-01-16T03:39:40;5.17;;;4.77;;
19038;SDS011;9652;49.014;12.052;2024-01-16T03:42:07;5.40;;;4.90;;
19038;SDS011;9652;49.014;12.052;2024-01-16T03:44:37;4.83;;;4.43;;
19038;SDS011;9652;49.014;12.052;2024-01-16T03:47:05;4.47;;;4.10;;
19038;SDS011;9652;49.014;12.052;2024-01-16T03:49:33;5.00;;;4.50;;
19038;SDS011;9652;49.014;12.052;2024-01-16T03:52:01;6.10;;;4.47;;
19038;SDS011;9652;49.014;12.052;2024-01-16T03:54:28;4.70;;;4.30;;
19038;SDS011;9652;49.014;12.052;2024-01-16T03:56:55;4.73;;;4.33;;
19038;SDS011;9652;49.014;12.052;2024-01-16T03:59:23;6.00;;;5.40;;
19038;SDS011;9652;49.014;12.052;2024-01-16T04:01:50;5.13;;;4.73;;
19038;SDS011;9652;49.014;12.052;2024-01-16T04:04:17;4.83;;;4.40;;
19038;SDS011;9652;49.014;12.052;2024-01-16T04:06:46;5.03;;;4.57;;
19038;SDS011;9652;49.014;12.052;2024-01-16T04:09:13;4.97;;;4.47;;
19038;SDS011;9652;49.014;12.052;2024-01-16T04:11:41;5.60;;;4.70;;
19038;SDS011;9652;49.014;12.052;2024-01-16T04:14:08;4.90;;;4.50;;
19038;SDS011;9652;49.014;12.052;2024-01-16T04:16:35;4.80;;;4.37;;
19038;SDS011;9652;49.014;12.052;2024-01-16T04:19:02;4.43;;;3.90;;
19038;SDS011;9652;49.014;12.052;2024-01-16T04:21:29;7.23;;;4.67;;
19038;SDS011;9652;49.014;12.052;2024-01-16T04:23:58;4.77;;;4.40;;
19038;SDS011;9652;49.014;12.052;2024-01-16T04:26:25;6.30;;;5.23;;
19038;SDS011;9652;49.014;12.052;2024-01-16T04:28:52;5.50;;;5.00;;
19038;SDS011;9652;49.014;12.052;2024-01-16T04:31:19;4.97;;;4.40;;
19038;SDS011;9652;49.014;12.052;2024-01-16T04:33:47;5.80;;;4.60;;
19038;SDS011;9652;49.014;12.052;2024-01-16T04:36:14;5.87;;;5.27;;
19038;SDS011;9652;49.014;12.052;2024-01-16T04:38:41;5.30;;;4.90;;
19038;SDS011;9652;49.014;12.052;2024-01-16T04:41:10;5.40;;;4.63;;
19038;SDS011;9652;49.014;12.052;2024-01-16T04:43:37;6.90;;;5.60;;
19038;SDS011;9652;49.014;12.052;2024-01-16T04:46:04;5.53;;;4.97;;
19038;SDS011;9652;49.014;12.052;2024-01-16T04:48:31;7.77;;;5.10;;
19038;SDS011;9652;49.014;12.052;2024-01-16T04:50:58;6.33;;;4.97;;
19038;SDS011;9652;49.014;12.052;2024-01-16T04:53:25;5.17;;;4.73;;
19038;SDS011;9652;49.014;12.052;2024-01-16T04:55:52;5.87;;;5.37;;
19038;SDS011;9652;49.014;12.052;2024-01-16T04:58:20;5.87;;;5.27;;
19038;SDS011;9652;49.014;12.052;2024-01-16T05:00:47;6.47;;;5.93;;
19038;SDS011;9652;49.014;12.052;2024-01-16T05:03:14;4.60;;;4.20;;
19038;SDS011;9652;49.014;12.052;2024-01-16T05:05:42;6.40;;;5.20;;
19038;SDS011;9652;49.014;12.052;2024-01-16T05:08:09;5.57;;;5.07;;
19038;SDS011;9652;49.014;12.052;2024-01-16T05:10:36;6.00;;;5.43;;
19038;SDS011;9652;49.014;12.052;2024-01-16T05:13:03;6.00;;;5.00;;
19038;SDS011;9652;49.014;12.052;2024-01-16T05:15:32;6.13;;;4.80;;
19038;SDS011;9652;49.014;12.052;2024-01-16T05:17:59;7.40;;;4.83;;
19038;SDS011;9652;49.014;12.052;2024-01-16T05:20:26;5.87;;;5.17;;
19038;SDS011;9652;49.014;12.052;2024-01-16T05:22:54;6.97;;;5.80;;
19038;SDS011;9652;49.014;12.052;2024-01-16T05:25:22;7.50;;;5.57;;
19038;SDS011;9652;49.014;12.052;2024-01-16T05:27:49;6.50;;;6.00;;
19038;SDS011;9652;49.014;12.052;2024-01-16T05:30:16;6.70;;;5.07;;
19038;SDS011;9652;49.014;12.052;2024-01-16T05:32:44;7.17;;;5.87;;
19038;SDS011;9652;49.014;12.052;2024-01-16T05:35:11;5.93;;;4.97;;
19038;SDS011;9652;49.014;12.052;2024-01-16T05:37:38;6.03;;;5.53;;
19038;SDS011;9652;49.014;12.052;2024-01-16T05:40:06;7.27;;;5.63;;
19038;SDS011;9652;49.014;12.052;2024-01-16T05:42:34;6.23;;;5.63;;
19038;SDS011;9652;49.014;12.052;2024-01-16T05:45:02;7.60;;;5.30;;
19038;SDS011;9652;49.014;12.052;2024-01-16T05:47:30;6.90;;;6.23;;
19038;SDS011;9652;49.014;12.052;2024-01-16T05:49:58;6.20;;;5.60;;
19038;SDS011;9652;49.014;12.052;2024-01-16T05:52:25;6.37;;;5.77;;
19038;SDS011;9652;49.014;12.052;2024-01-16T05:54:52;6.53;;;5.50;;
19038;SDS011;9652;49.014;12.052;2024-01-16T05:57:22;5.53;;;5.03;;
19038;SDS011;9652;49.014;12.052;2024-01-16T05:59:49;8.43;;;5.87;;
19038;SDS011;9652;49.014;12.052;2024-01-16T06:02:16;6.33;;;5.90;;
19038;SDS011;9652;49.014;12.052;2024-01-16T06:04:44;6.03;;;5.43;;
19038;SDS011;9652;49.014;12.052;2024-01-16T06:07:12;5.50;;;5.07;;
19038;SDS011;9652;49.014;12.052;2024-01-16T06:09:39;6.33;;;5.70;;
19038;SDS011;9652;49.014;12.052;2024-01-16T06:12:07;7.53;;;5.60;;
19038;SDS011;9652;49.014;12.052;2024-01-16T06:14:34;5.83;;;5.30;;
19038;SDS011;9652;49.014;12.052;2024-01-16T06:17:01;5.53;;;5.13;;
19038;SDS011;9652;49.014;12.052;2024-01-16T06:19:30;6.37;;;5.70;;
19038;SDS011;9652;49.014;12.052;2024-01-16T06:21:58;5.53;;;5.13;;
19038;SDS011;9652;49.014;12.052;2024-01-16T06:24:26;5.03;;;4.60;;
19038;SDS011;9652;49.014;12.052;2024-01-16T06:26:54;5.73;;;5.07;;
19038;SDS011;9652;49.014;12.052;2024-01-16T06:29:21;6.67;;;6.00;;
19038;SDS011;9652;49.014;12.052;2024-01-16T06:31:48;9.07;;;6.70;;
19038;SDS011;9652;49.014;12.052;2024-01-16T06:34:15;6.40;;;5.90;;
19038;SDS011;9652;49.014;12.052;2024-01-16T06:36:43;5.70;;;5.20;;
19038;SDS011;9652;49.014;12.052;2024-01-16T06:39:10;5.83;;;5.33;;
19038;SDS011;9652;49.014;12.052;2024-01-16T06:41:40;5.80;;;5.17;;
19038;SDS011;9652;49.014;12.052;2024-01-16T06:44:07;5.83;;;5.27;;
19038;SDS011;9652;49.014;12.052;2024-01-16T06:46:35;6.20;;;5.17;;
19038;SDS011;9652;49.014;12.052;2024-01-16T06:49:02;5.90;;;5.50;;
19038;SDS011;9652;49.014;12.052;2024-01-16T06:51:29;6.93;;;5.50;;
19038;SDS011;9652;49.014;12.052;2024-01-16T06:53:56;7.20;;;5.10;;
19038;SDS011;9652;49.014;12.052;2024-01-16T06:56:23;6.33;;;5.73;;
19038;SDS011;9652;49.014;12.052;2024-01-16T06:58:52;6.53;;;5.67;;
19038;SDS011;9652;49.014;12.052;2024-01-16T07:01:19;6.17;;;5.57;;
19038;SDS011;9652;49.014;12.052;2024-01-16T07:03:46;6.90;;;5.87;;
19038;SDS011;9652;49.014;12.052;2024-01-16T07:06:13;6.07;;;5.57;;
19038;SDS011;9652;49.014;12.052;2024-01-16T07:08:40;7.33;;;5.40;;
19038;SDS011;9652;49.014;12.052;2024-01-16T07:11:07;6.77;;;5.93;;
19038;SDS011;9652;49.014;12.052;2024-01-16T07:13:38;7.10;;;5.87;;
19038;SDS011;9652;49.014;12.052;2024-01-16T07:16:08;6.70;;;5.97;;
19038;SDS011;9652;49.014;12.052;2024-01-16T07:18:37;6.13;;;5.63;;
19038;SDS011;9652;49.014;12.052;2024-01-16T07:21:04;6.03;;;5.53;;
19038;SDS011;9652;49.014;12.052;2024-01-16T07:23:41;6.13;;;5.63;;
19038;SDS011;9652;49.014;12.052;2024-01-16T07:26:08;5.33;;;4.87;;
19038;SDS011;9652;49.014;12.052;2024-01-16T07:28:35;5.63;;;5.13;;
19038;SDS011;9652;49.014;12.052;2024-01-16T07:31:02;5.63;;;5.13;;
19038;SDS011;9652;49.014;12.052;2024-01-16T07:33:33;6.83;;;6.23;;
19038;SDS011;9652;49.014;12.052;2024-01-16T07:36:00;6.10;;;5.50;;
19038;SDS011;9652;49.014;12.052;2024-01-16T07:38:27;6.13;;;5.40;;
19038;SDS011;9652;49.014;12.052;2024-01-16T07:40:54;7.27;;;6.00;;
19038;SDS011;9652;49.014;12.052;2024-01-16T07:43:22;6.33;;;5.50;;
19038;SDS011;9652;49.014;12.052;2024-01-16T07:45:49;6.17;;;5.60;;
19038;SDS011;9652;49.014;12.052;2024-01-16T07:48:16;6.70;;;5.53;;
19038;SDS011;9652;49.014;12.052;2024-01-16T07:50:44;6.00;;;5.40;;
19038;SDS011;9652;49.014;12.052;2024-01-16T07:53:12;5.83;;;5.33;;
19038;SDS011;9652;49.014;12.052;2024-01-16T07:55:39;6.07;;;4.83;;
19038;SDS011;9652;49.014;12.052;2024-01-16T07:58:06;6.80;;;6.10;;
19038;SDS011;9652;49.014;12.052;2024-01-16T08:00:33;7.37;;;6.77;;
19038;SDS011;9652;49.014;12.052;2024-01-16T08:03:00;5.80;;;5.30;;
19038;SDS011;9652;49.014;12.052;2024-01-16T08:05:27;5.17;;;4.77;;
19038;SDS011;9652;49.014;12.052;2024-01-16T08:07:56;5.83;;;5.33;;
19038;SDS011;9652;49.014;12.052;2024-01-16T08:10:24;6.10;;;5.47;;
19038;SDS011;9652;49.014;12.052;2024-01-16T08:12:51;8.93;;;5.53;;
19038;SDS011;9652;49.014;12.052;2024-01-16T08:15:18;4.93;;;4.33;;
19038;SDS011;9652;49.014;12.052;2024-01-16T08:17:45;7.63;;;5.83;;
19038;SDS011;9652;49.014;12.052;2024-01-16T08:20:12;6.10;;;5.60;;
19038;SDS011;9652;49.014;12.052;2024-01-16T08:22:39;6.03;;;5.53;;
19038;SDS011;9652;49.014;12.052;2024-01-16T08:25:08;6.03;;;4.93;;
19038;SDS011;9652;49.014;12.052;2024-01-16T08:27:35;6.07;;;5.37;;
19038;SDS011;9652;49.014;12.052;2024-01-16T08:30:03;6.33;;;5.77;;
19038;SDS011;9652;49.014;12.052;2024-01-16T08:32:32;5.87;;;5.07;;
19038;SDS011;9652;49.014;12.052;2024-01-16T08:35:00;7.37;;;5.27;;
19038;SDS011;9652;49.014;12.052;2024-01-16T08:37:27;5.63;;;5.13;;
19038;SDS011;9652;49.014;12.052;2024-01-16T08:39:54;6.30;;;5.73;;
19038;SDS011;9652;49.014;12.052;2024-01-16T08:42:23;5.23;;;4.83;;
19038;SDS011;9652;49.014;12.052;2024-01-16T08:44:50;5.13;;;4.73;;
19038;SDS011;9652;49.014;12.052;2024-01-16T08:47:17;4.90;;;4.50;;
19038;SDS011;9652;49.014;12.052;2024-01-16T08:49:44;5.00;;;4.60;;
19038;SDS011;9652;49.014;12.052;2024-01-16T08:52:11;5.57;;;5.17;;
19038;SDS011;9652;49.014;12.052;2024-01-16T08:54:38;5.30;;;4.83;;
19038;SDS011;9652;49.014;12.052;2024-01-16T08:57:05;6.17;;;5.57;;
19038;SDS011;9652;49.014;12.052;2024-01-16T08:59:34;6.07;;;4.60;;
19038;SDS011;9652;49.014;12.052;2024-01-16T09:02:01;5.37;;;4.93;;
19038;SDS011;9652;49.014;12.052;2024-01-16T09:04:29;5.73;;;5.23;;
19038;SDS011;9652;49.014;12.052;2024-01-16T09:06:56;5.70;;;5.20;;
19038;SDS011;9652;49.014;12.052;2024-01-16T09:09:23;5.27;;;4.77;;
19038;SDS011;9652;49.014;12.052;2024-01-16T09:11:50;6.27;;;4.97;;
19038;SDS011;9652;49.014;12.052;2024-01-16T09:14:17;4.87;;;4.47;;
19038;SDS011;9652;49.014;12.052;2024-01-16T09:16:46;4.83;;;4.43;;
19038;SDS011;9652;49.014;12.052;2024-01-16T09:19:13;5.10;;;4.70;;
19038;SDS011;9652;49.014;12.052;2024-01-16T09:21:41;5.13;;;4.07;;
19038;SDS011;9652;49.014;12.052;2024-01-16T09:24:10;7.83;;;4.43;;
19038;SDS011;9652;49.014;12.052;2024-01-16T09:26:37;4.83;;;4.43;;
19038;SDS011;9652;49.014;12.052;2024-01-16T09:29:05;4.53;;;4.23;;
19038;SDS011;9652;49.014;12.052;2024-01-16T09:31:32;6.13;;;5.53;;
19038;SDS011;9652;49.014;12.052;2024-01-16T09:34:00;5.20;;;4.73;;
19038;SDS011;9652;49.014;12.052;2024-01-16T09:36:27;4.13;;;3.80;;
19038;SDS011;9652;49.014;12.052;2024-01-16T09:38:54;5.83;;;3.77;;
19038;SDS011;9652;49.014;12.052;2024-01-16T09:41:21;4.57;;;4.17;;
19038;SDS011;9652;49.014;12.052;2024-01-16T09:43:49;4.23;;;3.83;;
19038;SDS011;9652;49.014;12.052;2024-01-16T09:46:17;4.73;;;3.90;;
19038;SDS011;9652;49.014;12.052;2024-01-16T09:48:49;4.93;;;4.53;;
19038;SDS011;9652;49.014;12.052;2024-01-16T09:51:23;4.33;;;3.90;;
19038;SDS011;9652;49.014;12.052;2024-01-16T09:53:50;4.70;;;4.23;;
19038;SDS011;9652;49.014;12.052;2024-01-16T09:56:21;4.13;;;3.73;;
19038;SDS011;9652;49.014;12.052;2024-01-16T09:58:51;4.30;;;3.53;;
19038;SDS011;9652;49.014;12.052;2024-01-16T10:01:25;3.83;;;3.43;;
19038;SDS011;9652;49.014;12.052;2024-01-16T10:03:54;4.53;;;4.13;;
19038;SDS011;9652;49.014;12.052;2024-01-16T10:06:23;4.53;;;4.13;;
19038;SDS011;9652;49.014;12.052;2024-01-16T10:08:53;4.60;;;4.30;;
19038;SDS011;9652;49.014;12.052;2024-01-16T10:11:20;4.17;;;3.80;;
19038;SDS011;9652;49.014;12.052;2024-01-16T10:13:47;6.17;;;4.00;;
19038;SDS011;9652;49.014;12.052;2024-01-16T10:16:15;4.47;;;3.93;;
19038;SDS011;9652;49.014;12.052;2024-01-16T10:18:42;4.37;;;3.50;;
19038;SDS011;9652;49.014;12.052;2024-01-16T10:21:19;4.83;;;4.00;;
19038;SDS011;9652;49.014;12.052;2024-01-16T10:23:50;5.40;;;4.90;;
19038;SDS011;9652;49.014;12.052;2024-01-16T10:26:17;4.03;;;3.67;;
19038;SDS011;9652;49.014;12.052;2024-01-16T10:28:44;4.93;;;4.17;;
19038;SDS011;9652;49.014;12.052;2024-01-16T10:31:12;6.37;;;4.17;;
19038;SDS011;9652;49.014;12.052;2024-01-16T10:33:40;4.20;;;3.90;;
19038;SDS011;9652;49.014;12.052;2024-01-16T10:36:08;5.93;;;4.10;;
19038;SDS011;9652;49.014;12.052;2024-01-16T10:38:38;4.63;;;4.23;;
19038;SDS011;9652;49.014;12.052;2024-01-16T10:41:09;4.63;;;3.33;;
19038;SDS011;9652;49.014;12.052;2024-01-16T10:43:38;5.23;;;4.73;;
19038;SDS011;9652;49.014;12.052;2024-01-16T10:46:09;3.90;;;3.60;;
19038;SDS011;9652;49.014;12.052;2024-01-16T10:48:40;4.10;;;3.50;;
19038;SDS011;9652;49.014;12.052;2024-01-16T10:51:09;6.97;;;3.90;;
19038;SDS011;9652;49.014;12.052;2024-01-16T10:53:41;4.73;;;4.30;;
19038;SDS011;9652;49.014;12.052;2024-01-16T10:56:11;4.30;;;3.97;;
19038;SDS011;9652;49.014;12.052;2024-01-16T10:58:41;4.70;;;4.27;;
19038;SDS011;9652;49.014;12.052;2024-01-16T11:01:10;4.77;;;4.20;;
19038;SDS011;9652;49.014;12.052;2024-01-16T11:03:46;4.00;;;3.60;;
19038;SDS011;9652;49.014;12.052;2024-01-16T11:06:15;4.77;;;4.00;;
19038;SDS011;9652;49.014;12.052;2024-01-16T11:08:46;4.37;;;3.97;;
19038;SDS011;9652;49.014;12.052;2024-01-16T11:11:14;4.20;;;3.80;;
19038;SDS011;9652;49.014;12.052;2024-01-16T11:13:42;5.13;;;4.03;;
19038;SDS011;9652;49.014;12.052;2024-01-16T11:16:12;6.20;;;4.13;;
19038;SDS011;9652;49.014;12.052;2024-01-16T11:18:39;3.50;;;3.20;;
19038;SDS011;9652;49.014;12.052;2024-01-16T11:21:07;5.27;;;4.87;;
19038;SDS011;9652;49.014;12.052;2024-01-16T11:23:38;4.43;;;4.03;;
19038;SDS011;9652;49.014;12.052;2024-01-16T11:28:53;4.10;;;3.63;;
19038;SDS011;9652;49.014;12.052;2024-01-16T11:31:27;4.60;;;4.10;;
19038;SDS011;9652;49.014;12.052;2024-01-16T11:33:56;4.70;;;3.83;;
19038;SDS011;9652;49.014;12.052;2024-01-16T11:39:19;4.97;;;4.47;;
19038;SDS011;9652;49.014;12.052;2024-01-16T11:41:52;3.23;;;3.03;;
19038;SDS011;9652;49.014;12.052;2024-01-16T11:44:41;4.03;;;3.63;;
19038;SDS011;9652;49.014;12.052;2024-01-16T11:47:15;4.20;;;3.80;;
19038;SDS011;9652;49.014;12.052;2024-01-16T11:49:45;4.63;;;3.77;;
19038;SDS011;9652;49.014;12.052;2024-01-16T11:52:14;4.30;;;3.83;;
19038;SDS011;9652;49.014;12.052;2024-01-16T11:55:01;3.90;;;3.50;;
19038;SDS011;9652;49.014;12.052;2024-01-16T11:57:59;3.77;;;3.33;;
19038;SDS011;9652;49.014;12.052;2024-01-16T12:00:47;4.40;;;4.00;;
19038;SDS011;9652;49.014;12.052;2024-01-16T12:03:17;4.73;;;4.23;;
19038;SDS011;9652;49.014;12.052;2024-01-16T12:05:54;4.03;;;3.73;;
19038;SDS011;9652;49.014;12.052;2024-01-16T12:08:22;5.33;;;4.50;;
19038;SDS011;9652;49.014;12.052;2024-01-16T12:10:50;3.80;;;3.50;;
19038;SDS011;9652;49.014;12.052;2024-01-16T12:13:18;4.50;;;4.20;;
19038;SDS011;9652;49.014;12.052;2024-01-16T12:15:45;4.03;;;3.73;;
19038;SDS011;9652;49.014;12.052;2024-01-16T12:18:17;4.70;;;3.60;;
19038;SDS011;9652;49.014;12.052;2024-01-16T12:20:45;4.20;;;3.87;;
19038;SDS011;9652;49.014;12.052;2024-01-16T12:23:13;4.40;;;4.00;;
19038;SDS011;9652;49.014;12.052;2024-01-16T12:25:40;3.37;;;3.17;;
19038;SDS011;9652;49.014;12.052;2024-01-16T12:28:09;5.03;;;3.43;;
19038;SDS011;9652;49.014;12.052;2024-01-16T12:30:37;4.43;;;3.60;;
19038;SDS011;9652;49.014;12.052;2024-01-16T12:33:04;4.27;;;3.63;;
19038;SDS011;9652;49.014;12.052;2024-01-16T12:35:36;4.13;;;3.60;;
19038;SDS011;9652;49.014;12.052;2024-01-16T12:38:05;3.53;;;3.23;;
19038;SDS011;9652;49.014;12.052;2024-01-16T12:40:34;6.70;;;3.77;;
19038;SDS011;9652;49.014;12.052;2024-01-16T12:43:05;4.30;;;3.90;;
19038;SDS011;9652;49.014;12.052;2024-01-16T12:45:35;5.53;;;3.80;;
19038;SDS011;9652;49.014;12.052;2024-01-16T12:48:03;5.57;;;3.83;;
19038;SDS011;9652;49.014;12.052;2024-01-16T12:50:31;4.33;;;3.87;;
19038;SDS011;9652;49.014;12.052;2024-01-16T12:53:03;4.23;;;3.83;;
19038;SDS011;9652;49.014;12.052;2024-01-16T12:55:31;3.67;;;3.40;;
19038;SDS011;9652;49.014;12.052;2024-01-16T12:58:13;3.73;;;3.43;;
19038;SDS011;9652;49.014;12.052;2024-01-16T13:00:43;4.70;;;4.17;;
19038;SDS011;9652;49.014;12.052;2024-01-16T13:03:17;5.23;;;3.20;;
19038;SDS011;9652;49.014;12.052;2024-01-16T13:05:45;3.90;;;3.60;;
19038;SDS011;9652;49.014;12.052;2024-01-16T13:08:21;4.30;;;4.00;;
19038;SDS011;9652;49.014;12.052;2024-01-16T13:11:01;3.87;;;3.57;;
19038;SDS011;9652;49.014;12.052;2024-01-16T13:13:29;4.10;;;3.40;;
19038;SDS011;9652;49.014;12.052;2024-01-16T13:15:58;3.97;;;3.67;;
19038;SDS011;9652;49.014;12.052;2024-01-16T13:18:27;4.10;;;3.70;;
19038;SDS011;9652;49.014;12.052;2024-01-16T13:20:56;3.27;;;3.00;;
19038;SDS011;9652;49.014;12.052;2024-01-16T13:23:25;3.77;;;3.47;;
19038;SDS011;9652;49.014;12.052;2024-01-16T13:25:54;4.00;;;3.67;;
19038;SDS011;9652;49.014;12.052;2024-01-16T13:28:24;4.33;;;3.83;;
19038;SDS011;9652;49.014;12.052;2024-01-16T13:30:52;3.60;;;3.30;;
19038;SDS011;9652;49.014;12.052;2024-01-16T13:33:22;3.57;;;3.27;;
19038;SDS011;9652;49.014;12.052;2024-01-16T13:35:52;4.30;;;3.77;;
19038;SDS011;9652;49.014;12.052;2024-01-16T13:38:20;3.10;;;2.90;;
19038;SDS011;9652;49.014;12.052;2024-01-16T13:40:47;3.67;;;3.37;;
19038;SDS011;9652;49.014;12.052;2024-01-16T13:43:15;4.37;;;3.40;;
19038;SDS011;9652;49.014;12.052;2024-01-16T13:45:41;3.33;;;2.90;;
19038;SDS011;9652;49.014;12.052;2024-01-16T13:48:09;3.73;;;3.43;;
19038;SDS011;9652;49.014;12.052;2024-01-16T13:50:37;3.80;;;3.57;;
19038;SDS011;9652;49.014;12.052;2024-01-16T13:53:04;4.20;;;3.57;;
19038;SDS011;9652;49.014;12.052;2024-01-16T13:55:32;4.77;;;3.40;;
19038;SDS011;9652;49.014;12.052;2024-01-16T13:57:59;4.33;;;3.47;;
19038;SDS011;9652;49.014;12.052;2024-01-16T14:00:27;4.27;;;3.33;;
19038;SDS011;9652;49.014;12.052;2024-01-16T14:02:54;3.63;;;3.27;;
19038;SDS011;9652;49.014;12.052;2024-01-16T14:05:21;4.67;;;3.63;;
19038;SDS011;9652;49.014;12.052;2024-01-16T14:07:50;6.07;;;3.50;;
19038;SDS011;9652;49.014;12.052;2024-01-16T14:10:18;3.70;;;3.40;;
19038;SDS011;9652;49.014;12.052;2024-01-16T14:12:47;3.87;;;3.57;;
19038;SDS011;9652;49.014;12.052;2024-01-16T14:15:18;4.90;;;3.30;;
19038;SDS011;9652;49.014;12.052;2024-01-16T14:17:49;4.40;;;4.00;;
19038;SDS011;9652;49.014;12.052;2024-01-16T14:20:18;4.53;;;4.07;;
19038;SDS011;9652;49.014;12.052;2024-01-16T14:22:50;4.07;;;3.77;;
19038;SDS011;9652;49.014;12.052;2024-01-16T14:25:17;4.50;;;3.73;;
19038;SDS011;9652;49.014;12.052;2024-01-16T14:27:50;4.20;;;3.90;;
19038;SDS011;9652;49.014;12.052;2024-01-16T14:30:23;3.90;;;3.27;;
19038;SDS011;9652;49.014;12.052;2024-01-16T14:32:50;3.87;;;3.33;;
19038;SDS011;9652;49.014;12.052;2024-01-16T14:35:18;4.00;;;3.67;;
19038;SDS011;9652;49.014;12.052;2024-01-16T14:37:46;4.17;;;3.70;;
19038;SDS011;9652;49.014;12.052;2024-01-16T14:40:14;6.00;;;4.27;;
19038;SDS011;9652;49.014;12.052;2024-01-16T14:42:45;6.00;;;4.57;;
19038;SDS011;9652;49.014;12.052;2024-01-16T14:45:14;5.50;;;3.83;;
19038;SDS011;9652;49.014;12.052;2024-01-16T14:47:41;5.13;;;4.20;;
19038;SDS011;9652;49.014;12.052;2024-01-16T14:50:10;5.07;;;4.53;;
19038;SDS011;9652;49.014;12.052;2024-01-16T14:52:39;4.57;;;4.17;;
19038;SDS011;9652;49.014;12.052;2024-01-16T14:55:06;5.07;;;4.50;;
19038;SDS011;9652;49.014;12.052;2024-01-16T14:57:35;4.70;;;4.20;;
19038;SDS011;9652;49.014;12.052;2024-01-16T15:00:07;5.27;;;4.77;;